Weber, Minnesota
Current Conditions -  °F | °C
As of 8:35 PM on Friday 24 Oct 2014 (Local Time) from KROS Reporting Station
Scattered Clouds Scattered Clouds  
Wind Chill: 53°   Ceiling: Unl
Heat Index: 53°   Visibility: 10mi
Dew Point: 51°   Wind: 3mph
Humidity: 91%   Direction: 180°S
Pressure: 29.83"   Gusts: NA
Location:  45.5343°N, 92.8964°W
Report Text: KROS 250135Z AUTO 18003KT 10SM SCT110 12/10 A2983 RMK AO2 T01180104
Loading
Personal Weather Stations






























Interactive Weather Map
Tropical Storm Tracking
New forecast layout! Learn more

10-Day Weather Forecast

Advertisements
Track Severe Weather on mobile